TimeEST,TemperatureF,Dew PointF,Humidity,Sea Level PressureIn,VisibilityMPH,Wind Direction,Wind SpeedMPH,Gust SpeedMPH,PrecipitationIn,Events,Conditions,WindDirDegrees,DateUTC
12:54 AM,12.0,10.0,92,30.30,3.0,Calm,Calm,-,N/A,,Clear,0,2013-01-03 05:54:00
1:03 AM,12.2,10.4,92,30.18,2.5,Calm,Calm,-,N/A,,Clear,0,2013-01-03 06:03:00
1:26 AM,14.0,10.4,86,30.19,3.0,Calm,Calm,-,N/A,,Clear,0,2013-01-03 06:26:00
1:54 AM,14.0,10.9,88,30.29,2.5,Calm,Calm,-,N/A,,Clear,0,2013-01-03 06:54:00
2:54 AM,10.9,8.1,88,30.31,2.0,Calm,Calm,-,N/A,,Clear,0,2013-01-03 07:54:00
3:54 AM,10.0,8.1,92,30.29,3.0,South,3.5,-,N/A,,Clear,180,2013-01-03 08:54:00
4:54 AM,12.0,9.0,88,30.30,3.0,SW,3.5,-,N/A,,Clear,220,2013-01-03 09:54:00
5:54 AM,10.0,8.1,92,30.31,3.0,SW,4.6,-,N/A,,Clear,220,2013-01-03 10:54:00
6:54 AM,10.0,7.0,87,30.32,4.0,SSW,5.8,-,N/A,,Clear,210,2013-01-03 11:54:00
7:54 AM,12.0,8.1,84,30.33,6.0,SSW,5.8,-,N/A,,Clear,210,2013-01-03 12:54:00
8:54 AM,15.1,12.0,88,30.33,5.0,SSW,5.8,-,N/A,,Clear,210,2013-01-03 13:54:00
9:54 AM,21.9,16.0,78,30.32,8.0,SW,8.1,-,N/A,,Clear,220,2013-01-03 14:54:00
10:54 AM,27.0,14.0,58,30.32,10.0,WSW,10.4,-,N/A,,Clear,250,2013-01-03 15:54:00
11:54 AM,28.9,15.1,56,30.30,10.0,WSW,13.8,-,N/A,,Clear,250,2013-01-03 16:54:00
12:54 PM,30.9,17.1,57,30.28,10.0,WSW,10.4,-,N/A,,Clear,240,2013-01-03 17:54:00
1:54 PM,33.1,16.0,50,30.27,10.0,West,15.0,-,N/A,,Clear,260,2013-01-03 18:54:00
2:22 PM,33.8,17.6,52,30.17,10.0,West,17.3,-,N/A,,Mostly Cloudy,260,2013-01-03 19:22:00
2:29 PM,33.8,19.4,56,30.17,10.0,West,18.4,-,N/A,,Mostly Cloudy,260,2013-01-03 19:29:00
2:54 PM,33.1,19.9,59,30.29,10.0,West,16.1,23.0,N/A,,Scattered Clouds,270,2013-01-03 19:54:00
3:54 PM,32.0,21.0,64,30.31,10.0,WNW,12.7,-,N/A,,Partly Cloudy,290,2013-01-03 20:54:00
4:54 PM,30.9,19.9,64,30.33,9.0,West,13.8,-,N/A,,Partly Cloudy,270,2013-01-03 21:54:00
5:54 PM,28.9,19.9,69,30.35,10.0,West,8.1,-,N/A,,Mostly Cloudy,260,2013-01-03 22:54:00
6:54 PM,28.9,21.0,72,30.36,10.0,WSW,6.9,-,N/A,,Overcast,250,2013-01-03 23:54:00
7:54 PM,30.0,21.0,69,30.36,10.0,West,9.2,-,N/A,,Overcast,260,2013-01-04 00:54:00
8:54 PM,30.0,21.0,69,30.36,10.0,West,11.5,-,N/A,,Overcast,260,2013-01-04 01:54:00
9:54 PM,30.0,21.0,69,30.36,10.0,West,17.3,29.9,N/A,,Overcast,280,2013-01-04 02:54:00
10:54 PM,28.9,21.9,75,30.37,10.0,WNW,11.5,-,N/A,,Overcast,290,2013-01-04 03:54:00
11:54 PM,28.9,21.9,75,30.36,9.0,West,11.5,19.6,N/A,,Overcast,270,2013-01-04 04:54:00